Terminal Aerodrome Forecast
Issued by NWS Omaha/Valley, NE

Home | Current Version | Previous Version | Graphics & Text | Print | Product List | Glossary Off
Versions: 1 2 3 4 5 6 7 8 9 10 11 12 13 14 15 16 17 18 19 20 21 22 23 24 25 26 27 28 29 30 31 32 33 34 35

000
FTUS43 KOAX 050520
TAFOFK
TAF
KOFK 050520Z 0506/0606 16013KT P6SM SCT120 BKN250 WS020/20042KT
     FM050900 18011KT P6SM BKN120 WS020/21043KT
     FM051600 18016G23KT P6SM SCT120 BKN200=

USA.gov is the U.S. government's official web portal to all federal, state and local government web resources and services.